Airport Name : Powidz

Other Name : Powidz

ICAO : EPPW

IATA :

FAA :

Latitude : 52.379444

Longitude : 17.853889

Country : Poland

Local Date and Time : 25 Jun 2024 08:22

 

TAF (Terminal Aerodrome Forecast)

TAF EPPW 250500Z 2506/2518 09010KT CAVOK

 

METAR (METeorological Aerodrome Report)